createdAt,value
2023-04-11T00:02:22.055Z,7.75
2023-04-11T00:04:49.370Z,10.10
2023-04-11T00:07:17.510Z,7.35
2023-04-11T00:09:44.756Z,9.10
2023-04-11T00:12:11.764Z,6.85
2023-04-11T00:14:38.610Z,10.23
2023-04-11T00:17:06.265Z,10.57
2023-04-11T00:19:34.504Z,4.50
2023-04-11T00:22:01.980Z,6.82
2023-04-11T00:24:29.012Z,8.43
2023-04-11T00:26:57.032Z,6.35
2023-04-11T00:29:25.662Z,10.05
2023-04-11T00:31:55.600Z,9.35
2023-04-11T00:34:22.537Z,5.68
2023-04-11T00:36:49.555Z,5.35
2023-04-11T00:39:20.014Z,8.95
2023-04-11T00:41:47.266Z,7.75
2023-04-11T00:44:14.499Z,11.80
2023-04-11T00:46:46.248Z,8.88
2023-04-11T00:51:40.869Z,12.35
2023-04-11T00:54:10.535Z,6.13
2023-04-11T00:56:37.808Z,6.25
2023-04-11T00:59:07.680Z,14.93
2023-04-11T01:01:36.617Z,6.43
2023-04-11T01:04:04.203Z,7.40
2023-04-11T01:06:33.868Z,12.00
2023-04-11T01:09:00.926Z,7.13
2023-04-11T01:11:27.904Z,9.95
2023-04-11T01:13:56.009Z,8.77
2023-04-11T01:16:22.888Z,10.75
2023-04-11T01:18:50.146Z,16.52
2023-04-11T01:21:19.848Z,14.95
2023-04-11T01:23:49.115Z,9.23
2023-04-11T01:26:16.509Z,11.60
2023-04-11T01:28:43.512Z,15.35
2023-04-11T01:31:10.369Z,10.70
2023-04-11T01:33:37.423Z,9.05
2023-04-11T01:36:04.735Z,7.88
2023-04-11T01:38:31.577Z,15.68
2023-04-11T01:41:00.288Z,15.45
2023-04-11T01:43:29.638Z,12.63
2023-04-11T01:45:57.872Z,12.85
2023-04-11T01:48:25.023Z,9.25
2023-04-11T01:50:53.287Z,12.50
2023-04-11T01:53:20.769Z,8.93
2023-04-11T01:55:48.393Z,18.63
2023-04-11T01:58:15.462Z,8.98
2023-04-11T02:00:44.004Z,14.73
2023-04-11T02:03:11.559Z,10.85
2023-04-11T02:05:39.772Z,11.68
2023-04-11T02:08:06.696Z,18.85
2023-04-11T02:10:33.592Z,6.72
2023-04-11T02:13:00.439Z,13.20
2023-04-11T02:15:28.007Z,10.02
2023-04-11T02:17:56.033Z,12.40
2023-04-11T02:20:23.508Z,8.65
2023-04-11T02:22:51.666Z,10.55
2023-04-11T02:25:18.612Z,13.85
2023-04-11T02:27:45.542Z,12.82
2023-04-11T02:30:12.575Z,12.35
2023-04-11T02:32:39.869Z,8.82
2023-04-11T02:35:10.094Z,9.05
2023-04-11T02:37:37.653Z,17.00
2023-04-11T02:40:05.198Z,10.65
2023-04-11T02:42:32.057Z,5.53
2023-04-11T02:44:59.044Z,9.90
2023-04-11T02:47:26.493Z,10.68
2023-04-11T02:49:54.511Z,17.75
2023-04-11T02:52:21.929Z,16.17
2023-04-11T02:54:48.809Z,9.15
2023-04-11T02:57:18.384Z,8.15
2023-04-11T02:59:45.738Z,13.32
2023-04-11T03:02:13.105Z,9.68
2023-04-11T03:04:44.000Z,8.48
2023-04-11T03:07:12.662Z,9.55
2023-04-11T03:09:39.549Z,14.77
2023-04-11T03:12:09.108Z,9.85
2023-04-11T03:14:38.805Z,10.80
2023-04-11T03:17:05.716Z,12.05
2023-04-11T03:19:32.664Z,9.88
2023-04-11T03:22:02.200Z,9.70
2023-04-11T03:24:30.694Z,6.93
2023-04-11T03:26:59.332Z,9.80
2023-04-11T03:29:26.183Z,11.18
2023-04-11T03:31:55.445Z,11.02
2023-04-11T03:34:23.595Z,7.18
2023-04-11T03:36:50.545Z,7.80
2023-04-11T03:39:22.519Z,15.63
2023-04-11T03:41:49.724Z,16.52
2023-04-11T03:44:16.920Z,13.07
2023-04-11T03:46:44.193Z,10.73
2023-04-11T03:49:11.100Z,12.00
2023-04-11T03:51:39.361Z,12.93
2023-04-11T03:54:07.813Z,10.65
2023-04-11T03:56:34.807Z,11.70
2023-04-11T03:59:02.033Z,7.78
2023-04-11T04:01:28.983Z,7.18
2023-04-11T04:03:56.434Z,7.30
2023-04-11T04:06:23.789Z,6.88
2023-04-11T04:08:50.747Z,8.75
2023-04-11T04:11:17.644Z,9.02
2023-04-11T04:13:44.614Z,6.55
2023-04-11T04:16:11.597Z,7.22
2023-04-11T04:18:38.469Z,11.40
2023-04-11T04:21:07.365Z,9.50
2023-04-11T04:23:36.853Z,7.15
2023-04-11T04:26:04.258Z,5.03
2023-04-11T04:28:31.329Z,5.32
2023-04-11T04:30:58.331Z,5.55
2023-04-11T04:33:27.452Z,8.43
2023-04-11T04:36:00.266Z,7.65
2023-04-11T04:38:29.106Z,3.63
2023-04-11T04:40:56.049Z,11.15
2023-04-11T04:43:24.513Z,9.02
2023-04-11T04:45:51.504Z,6.00
2023-04-11T04:48:20.156Z,11.00
2023-04-11T04:50:46.997Z,5.93
2023-04-11T04:53:15.002Z,9.90
2023-04-11T04:55:41.852Z,3.35
2023-04-11T04:58:09.292Z,6.38
2023-04-11T05:00:36.923Z,8.45
2023-04-11T05:03:06.019Z,11.65
2023-04-11T05:05:33.165Z,7.03
2023-04-11T05:08:02.251Z,10.50
2023-04-11T05:10:30.702Z,6.18
2023-04-11T05:12:57.671Z,5.07
2023-04-11T05:15:24.859Z,6.57
2023-04-11T05:17:51.862Z,8.25
2023-04-11T05:20:19.016Z,10.35
2023-04-11T05:22:47.597Z,4.18
2023-04-11T05:25:14.564Z,14.82
2023-04-11T05:27:42.809Z,8.20
2023-04-11T05:30:10.861Z,9.88
2023-04-11T05:32:38.397Z,12.60
2023-04-11T05:35:06.223Z,7.50
2023-04-11T05:37:33.193Z,6.70
2023-04-11T05:40:00.606Z,5.57
2023-04-11T05:42:27.419Z,4.78
2023-04-11T05:44:54.323Z,7.45
2023-04-11T05:47:21.374Z,8.20
2023-04-11T05:49:49.414Z,12.23
2023-04-11T05:52:16.832Z,5.38
2023-04-11T05:54:44.666Z,4.43
2023-04-11T05:57:12.633Z,5.55
2023-04-11T05:59:39.504Z,13.07
2023-04-11T06:02:06.862Z,11.52
2023-04-11T06:04:34.496Z,18.05
2023-04-11T06:07:03.963Z,12.30
2023-04-11T06:09:32.677Z,19.92
2023-04-11T06:12:02.984Z,13.05
2023-04-11T06:14:32.427Z,12.15
2023-04-11T06:17:00.050Z,12.75
2023-04-11T06:19:27.007Z,10.35
2023-04-11T06:21:53.920Z,9.05
2023-04-11T06:24:35.588Z,8.57
2023-04-11T06:29:31.465Z,7.97
2023-04-11T06:31:59.693Z,3.83
2023-04-11T06:34:28.992Z,6.28
2023-04-11T06:36:57.235Z,5.15
2023-04-11T06:39:24.364Z,7.88
2023-04-11T06:41:51.542Z,8.23
2023-04-11T06:44:21.518Z,9.55
2023-04-11T06:46:49.728Z,8.85
2023-04-11T06:49:19.197Z,6.45
2023-04-11T06:51:54.960Z,4.18
2023-04-11T06:54:23.733Z,2.35
2023-04-11T06:56:50.957Z,7.43
2023-04-11T06:59:21.118Z,5.55
2023-04-11T07:01:49.376Z,7.53
2023-04-11T07:04:16.943Z,7.50
2023-04-11T07:06:44.091Z,10.88
2023-04-11T07:09:13.315Z,11.75
2023-04-11T07:11:40.374Z,9.35
2023-04-11T07:14:07.693Z,7.50
2023-04-11T07:16:35.001Z,17.23
2023-04-11T07:19:03.342Z,3.20
2023-04-11T07:21:33.650Z,3.65
2023-04-11T07:24:04.135Z,6.65
2023-04-11T07:26:32.818Z,5.20
2023-04-11T07:29:00.156Z,4.13
2023-04-11T07:31:28.602Z,8.07
2023-04-11T07:33:56.180Z,7.57
2023-04-11T07:36:23.382Z,9.85
2023-04-11T07:38:52.472Z,8.23
2023-04-11T07:41:19.363Z,8.50
2023-04-11T07:43:51.787Z,13.48
2023-04-11T07:46:21.706Z,4.80
2023-04-11T07:48:51.049Z,4.82
2023-04-11T07:51:18.031Z,5.50
2023-04-11T07:53:49.692Z,7.93
2023-04-11T07:56:19.582Z,6.30
2023-04-11T07:58:49.584Z,8.07
2023-04-11T08:01:24.106Z,3.92
2023-04-11T08:03:54.144Z,8.10
2023-04-11T08:06:21.406Z,6.32
2023-04-11T08:08:50.709Z,4.78
2023-04-11T08:11:17.547Z,5.70
2023-04-11T08:13:48.209Z,4.22
2023-04-11T08:16:15.623Z,14.55
2023-04-11T08:18:43.208Z,6.85
2023-04-11T08:21:11.949Z,8.27
2023-04-11T08:23:41.096Z,4.85
2023-04-11T08:26:09.348Z,7.97
2023-04-11T08:28:36.415Z,22.85
2023-04-11T08:31:05.250Z,4.97
2023-04-11T08:33:33.219Z,5.72
2023-04-11T08:36:02.992Z,13.13
2023-04-11T08:38:29.939Z,15.07
2023-04-11T08:40:57.954Z,8.40
2023-04-11T08:43:24.882Z,4.25
2023-04-11T08:45:55.522Z,6.80
2023-04-11T08:48:25.502Z,8.00
2023-04-11T08:50:53.857Z,6.97
2023-04-11T08:53:25.355Z,5.13
2023-04-11T08:55:52.726Z,5.63
2023-04-11T08:58:20.187Z,6.22
2023-04-11T09:00:47.266Z,6.47
2023-04-11T09:03:17.433Z,8.30
2023-04-11T09:05:46.604Z,12.68
2023-04-11T09:08:17.408Z,10.10
2023-04-11T09:10:48.307Z,5.82
2023-04-11T09:13:24.381Z,6.75
2023-04-11T09:16:12.303Z,11.15
2023-04-11T09:18:40.318Z,8.27
2023-04-11T09:21:12.666Z,5.70
2023-04-11T09:26:12.835Z,16.20
2023-04-11T09:28:45.446Z,5.68
2023-04-11T09:31:13.573Z,8.60
2023-04-11T09:33:53.903Z,5.60
2023-04-11T09:36:24.356Z,12.48
2023-04-11T09:38:54.519Z,6.78
2023-04-11T09:41:39.403Z,8.45
2023-04-11T09:44:06.998Z,6.45
2023-04-11T09:46:34.056Z,7.22
2023-04-11T09:49:02.161Z,7.38
2023-04-11T09:51:36.538Z,5.03
2023-04-11T09:54:05.685Z,15.45
2023-04-11T09:56:36.625Z,9.60
2023-04-11T09:59:05.487Z,10.48
2023-04-11T10:01:33.455Z,5.97
2023-04-11T10:04:01.575Z,14.07
2023-04-11T10:06:39.778Z,18.33
2023-04-11T10:09:11.851Z,9.35
2023-04-11T10:11:43.517Z,14.55
2023-04-11T10:14:39.860Z,10.25
2023-04-11T10:17:23.984Z,6.13
2023-04-11T10:19:56.686Z,10.88
2023-04-11T10:22:46.239Z,11.80
2023-04-11T10:25:25.271Z,7.63
2023-04-11T10:27:54.713Z,16.05
2023-04-11T10:30:39.823Z,16.10
2023-04-11T10:33:17.877Z,17.75
2023-04-11T10:35:58.378Z,13.02
2023-04-11T10:38:37.875Z,10.55
2023-04-11T10:41:23.056Z,7.07
2023-04-11T10:43:50.418Z,13.27
2023-04-11T10:46:25.270Z,18.95
2023-04-11T10:49:02.388Z,13.48
2023-04-11T10:51:32.864Z,10.18
2023-04-11T10:54:00.778Z,10.98
2023-04-11T10:56:44.094Z,10.90
2023-04-11T10:59:32.512Z,7.43
2023-04-11T11:02:03.226Z,11.18
2023-04-11T11:04:36.237Z,9.05
2023-04-11T11:07:14.639Z,9.95
2023-04-11T11:09:41.713Z,13.95
2023-04-11T11:12:17.443Z,6.65
2023-04-11T11:14:47.485Z,7.35
2023-04-11T11:17:16.549Z,13.15
2023-04-11T11:19:45.702Z,11.38
2023-04-11T11:22:26.591Z,9.48
2023-04-11T11:24:54.989Z,12.75
2023-04-11T11:27:23.762Z,11.23
2023-04-11T11:29:51.324Z,5.03
2023-04-11T11:32:25.437Z,7.82
2023-04-11T11:34:53.246Z,8.75
2023-04-11T11:37:22.470Z,9.95
2023-04-11T11:39:51.742Z,11.52
2023-04-11T11:42:19.140Z,6.20
2023-04-11T11:44:46.034Z,8.25
2023-04-11T11:47:17.158Z,6.72
2023-04-11T11:49:52.783Z,8.18
2023-04-11T11:52:37.043Z,5.45
2023-04-11T11:55:08.046Z,3.45
2023-04-11T11:57:37.878Z,6.82
2023-04-11T12:00:10.669Z,6.43
2023-04-11T12:02:39.294Z,3.88
2023-04-11T12:05:07.882Z,4.07
2023-04-11T12:07:38.135Z,2.97
2023-04-11T12:10:11.152Z,1.88
2023-04-11T12:12:40.271Z,3.97
2023-04-11T12:15:17.184Z,1.30
2023-04-11T12:17:48.546Z,5.65
2023-04-11T12:20:16.021Z,1.60
2023-04-11T12:22:43.045Z,0.93
2023-04-11T12:25:14.949Z,3.92
2023-04-11T12:27:43.679Z,1.35
2023-04-11T12:30:12.241Z,3.45
2023-04-11T12:32:39.289Z,1.10
2023-04-11T12:35:07.194Z,1.73
2023-04-11T12:37:35.187Z,0.50
2023-04-11T12:40:15.694Z,2.72
2023-04-11T12:42:56.433Z,2.30
2023-04-11T12:45:24.723Z,8.45
2023-04-11T12:47:51.965Z,7.97
2023-04-11T12:50:19.185Z,3.88
2023-04-11T12:52:46.088Z,1.52
2023-04-11T12:55:15.732Z,2.88
2023-04-11T12:57:43.960Z,2.60
2023-04-11T13:00:21.417Z,2.17
2023-04-11T13:02:49.106Z,2.45
2023-04-11T13:05:17.705Z,2.78
2023-04-11T13:07:45.801Z,3.35
2023-04-11T13:10:14.856Z,7.18
2023-04-11T13:12:48.618Z,5.03
2023-04-11T13:15:16.909Z,3.95
2023-04-11T13:17:44.321Z,2.72
2023-04-11T13:20:11.890Z,3.15
2023-04-11T13:22:43.141Z,0.82
2023-04-11T13:25:11.195Z,2.07
2023-04-11T13:27:39.873Z,2.28
2023-04-11T13:30:08.319Z,1.00
2023-04-11T13:32:35.627Z,2.03
2023-04-11T13:35:04.341Z,2.58
2023-04-11T13:37:31.906Z,2.45
2023-04-11T13:39:59.347Z,2.33
2023-04-11T13:42:26.269Z,3.10
2023-04-11T13:44:57.657Z,2.22
2023-04-11T13:47:24.570Z,1.80
2023-04-11T13:49:54.789Z,2.08
2023-04-11T13:52:25.035Z,0.77
2023-04-11T13:54:53.633Z,1.23
2023-04-11T13:57:21.946Z,1.20
2023-04-11T13:59:48.881Z,0.35
2023-04-11T14:02:16.358Z,0.73
2023-04-11T14:04:44.069Z,1.35
2023-04-11T14:07:11.060Z,4.18
2023-04-11T14:09:38.015Z,1.10
2023-04-11T14:12:04.947Z,0.55
2023-04-11T14:14:31.840Z,2.53
2023-04-11T14:16:58.813Z,1.30
2023-04-11T14:19:27.182Z,0.57
2023-04-11T14:21:54.193Z,2.17
2023-04-11T14:24:22.521Z,0.82
2023-04-11T14:26:50.351Z,0.40
2023-04-11T14:29:17.938Z,2.83
2023-04-11T14:31:45.866Z,0.88
2023-04-11T14:34:12.813Z,0.70
2023-04-11T14:36:40.476Z,2.55
2023-04-11T14:39:07.559Z,1.25
2023-04-11T14:41:36.741Z,1.38
2023-04-11T14:44:03.915Z,5.10
2023-04-11T14:46:32.213Z,7.03
2023-04-11T14:49:00.675Z,3.65
2023-04-11T14:51:29.224Z,6.10
2023-04-11T14:53:57.217Z,2.22
2023-04-11T14:56:25.124Z,2.17
2023-04-11T14:58:52.495Z,3.83
2023-04-11T15:01:22.179Z,1.23
2023-04-11T15:03:49.249Z,2.63
2023-04-11T15:06:16.443Z,5.80
2023-04-11T15:08:43.408Z,7.90
2023-04-11T15:11:13.161Z,4.22
2023-04-11T15:13:40.086Z,5.43
2023-04-11T15:16:08.459Z,4.43
2023-04-11T15:18:35.664Z,2.25
2023-04-11T15:21:03.562Z,1.42
2023-04-11T15:23:30.832Z,1.92
2023-04-11T15:26:02.894Z,1.58
2023-04-11T15:28:34.659Z,3.28
2023-04-11T15:31:02.796Z,3.10
2023-04-11T15:33:32.061Z,3.67
2023-04-11T15:36:00.799Z,1.25
2023-04-11T15:38:29.408Z,2.22
2023-04-11T15:41:00.080Z,1.17
2023-04-11T15:43:27.353Z,3.22
2023-04-11T15:45:54.938Z,2.45
2023-04-11T15:48:21.960Z,11.00
2023-04-11T15:50:49.172Z,2.28
2023-04-11T15:53:16.138Z,4.88
2023-04-11T15:55:43.984Z,2.42
2023-04-11T15:58:11.106Z,4.28
2023-04-11T16:00:42.845Z,2.20
2023-04-11T16:03:11.044Z,0.95
2023-04-11T16:05:40.979Z,4.97
2023-04-11T16:08:08.425Z,3.10
2023-04-11T16:10:36.539Z,1.45
2023-04-11T16:13:04.974Z,4.55
2023-04-11T16:15:32.523Z,1.95
2023-04-11T16:17:59.597Z,1.40
2023-04-11T16:20:26.499Z,3.33
2023-04-11T16:22:53.646Z,4.57
2023-04-11T16:25:21.683Z,5.95
2023-04-11T16:27:48.973Z,5.13
2023-04-11T16:30:17.168Z,6.20
2023-04-11T16:32:44.300Z,7.50
2023-04-11T16:35:11.425Z,9.25
2023-04-11T16:37:38.442Z,10.57
2023-04-11T16:40:16.265Z,11.75
2023-04-11T16:42:44.241Z,11.77
2023-04-11T16:45:12.425Z,10.85
2023-04-11T16:47:39.494Z,12.13
2023-04-11T16:50:07.629Z,10.55
2023-04-11T16:52:35.621Z,6.88
2023-04-11T16:55:04.663Z,4.20
2023-04-11T16:57:33.541Z,6.55
2023-04-11T17:00:05.599Z,5.82
2023-04-11T17:02:33.530Z,3.70
2023-04-11T17:05:03.262Z,7.57
2023-04-11T17:07:30.216Z,9.63
2023-04-11T17:09:58.750Z,3.70
2023-04-11T17:12:27.363Z,2.45
2023-04-11T17:14:57.265Z,4.70
2023-04-11T17:17:25.257Z,2.40
2023-04-11T17:19:52.755Z,1.77
2023-04-11T17:22:21.930Z,2.08
2023-04-11T17:24:48.789Z,2.70
2023-04-11T17:27:16.825Z,2.20
2023-04-11T17:29:43.908Z,1.48
2023-04-11T17:32:14.765Z,3.53
2023-04-11T17:34:42.357Z,3.35
2023-04-11T17:37:09.627Z,1.85
2023-04-11T17:39:36.815Z,0.75
2023-04-11T17:42:06.783Z,3.35
2023-04-11T17:44:34.321Z,3.70
2023-04-11T17:47:01.334Z,3.05
2023-04-11T17:49:28.417Z,2.83
2023-04-11T17:51:59.041Z,4.03
2023-04-11T17:54:27.053Z,1.97
2023-04-11T17:56:55.201Z,3.47
2023-04-11T17:59:25.607Z,2.75
2023-04-11T18:01:56.206Z,2.33
2023-04-11T18:04:23.981Z,4.97
2023-04-11T18:06:50.980Z,2.33
2023-04-11T18:09:18.258Z,2.45
2023-04-11T18:11:45.373Z,5.38
2023-04-11T18:14:12.313Z,5.10
2023-04-11T18:16:41.820Z,2.40
2023-04-11T18:19:09.752Z,1.05
2023-04-11T18:21:39.038Z,1.42
2023-04-11T18:24:06.590Z,1.63
2023-04-11T18:26:34.858Z,1.85
2023-04-11T18:29:06.767Z,2.97
2023-04-11T18:31:35.745Z,1.60
2023-04-11T18:34:06.741Z,1.88
2023-04-11T18:36:34.473Z,2.13
2023-04-11T18:39:01.525Z,3.42
2023-04-11T18:41:38.697Z,5.47
2023-04-11T18:44:06.426Z,3.35
2023-04-11T18:46:35.521Z,6.13
2023-04-11T18:49:05.514Z,3.53
2023-04-11T18:51:34.516Z,2.63
2023-04-11T18:54:01.475Z,1.98
2023-04-11T18:56:30.481Z,2.83
2023-04-11T18:59:04.668Z,2.03
2023-04-11T19:01:35.192Z,2.05
2023-04-11T19:04:05.189Z,1.83
2023-04-11T19:06:32.569Z,4.55
2023-04-11T19:08:59.620Z,2.65
2023-04-11T19:11:26.772Z,1.98
2023-04-11T19:13:54.740Z,8.93
2023-04-11T19:16:21.965Z,5.20
2023-04-11T19:18:49.162Z,3.08
2023-04-11T19:21:16.688Z,2.95
2023-04-11T19:23:43.683Z,2.13
2023-04-11T19:26:10.717Z,2.83
2023-04-11T19:28:38.917Z,1.77
2023-04-11T19:31:05.926Z,6.13
2023-04-11T19:33:36.523Z,4.50
2023-04-11T19:36:04.163Z,2.85
2023-04-11T19:38:31.944Z,3.75
2023-04-11T19:41:10.667Z,3.45
2023-04-11T19:43:37.560Z,5.35
2023-04-11T19:46:05.892Z,4.10
2023-04-11T19:48:34.600Z,9.20
2023-04-11T19:51:02.924Z,3.35
2023-04-11T19:53:35.783Z,2.38
2023-04-11T19:56:11.510Z,4.75
2023-04-11T19:58:38.434Z,5.97
2023-04-11T20:01:07.480Z,4.07
2023-04-11T20:03:34.800Z,3.25
2023-04-11T20:06:05.680Z,7.03
2023-04-11T20:08:32.850Z,5.43
2023-04-11T20:11:00.994Z,2.92
2023-04-11T20:13:28.302Z,2.67
2023-04-11T20:15:55.471Z,3.00
2023-04-11T20:18:24.181Z,4.38
2023-04-11T20:20:51.719Z,3.53
2023-04-11T20:23:18.828Z,3.55
2023-04-11T20:25:46.905Z,5.93
2023-04-11T20:28:13.762Z,5.47
2023-04-11T20:30:42.223Z,7.13
2023-04-11T20:33:09.176Z,6.30
2023-04-11T20:35:36.321Z,7.07
2023-04-11T20:38:03.820Z,7.03
2023-04-11T20:40:31.895Z,4.65
2023-04-11T20:43:02.193Z,9.07
2023-04-11T20:45:30.827Z,8.93
2023-04-11T20:48:01.932Z,7.68
2023-04-11T20:50:33.667Z,2.95
2023-04-11T20:53:04.176Z,4.15
2023-04-11T20:55:34.021Z,3.13
2023-04-11T20:58:01.413Z,7.18
2023-04-11T21:00:29.572Z,6.03
2023-04-11T21:02:57.146Z,3.42
2023-04-11T21:05:25.236Z,5.68
2023-04-11T21:07:55.594Z,11.77
2023-04-11T21:10:22.546Z,6.13
2023-04-11T21:12:51.869Z,8.98
2023-04-11T21:15:20.948Z,11.30
2023-04-11T21:17:48.424Z,5.25
2023-04-11T21:20:18.533Z,7.38
2023-04-11T21:22:47.115Z,6.80
2023-04-11T21:25:14.500Z,5.55
2023-04-11T21:27:41.602Z,7.93
2023-04-11T21:30:09.925Z,1.98
2023-04-11T21:32:36.866Z,5.22
2023-04-11T21:35:09.594Z,5.40
2023-04-11T21:37:41.074Z,7.43
2023-04-11T21:40:08.679Z,2.42
2023-04-11T21:42:36.190Z,4.57
2023-04-11T21:45:03.152Z,1.50
2023-04-11T21:47:30.055Z,8.63
2023-04-11T21:49:59.059Z,2.30
2023-04-11T21:52:26.153Z,5.55
2023-04-11T21:54:56.480Z,3.05
2023-04-11T21:57:24.394Z,3.97
2023-04-11T21:59:51.582Z,1.73
2023-04-11T22:02:19.451Z,2.45
2023-04-11T22:05:05.101Z,4.53
2023-04-11T22:07:55.413Z,4.57
2023-04-11T22:10:23.786Z,3.03
2023-04-11T22:12:54.169Z,5.15
2023-04-11T22:15:21.820Z,2.47
2023-04-11T22:17:51.280Z,3.03
2023-04-11T22:20:18.972Z,3.90
2023-04-11T22:22:46.179Z,6.15
2023-04-11T22:25:14.974Z,5.40
2023-04-11T22:27:41.860Z,5.55
2023-04-11T22:30:10.064Z,6.55
2023-04-11T22:32:38.797Z,6.22
2023-04-11T22:35:08.647Z,5.80
2023-04-11T22:37:36.982Z,6.13
2023-04-11T22:40:06.434Z,11.18
2023-04-11T22:42:33.522Z,3.03
2023-04-11T22:45:00.595Z,7.32
2023-04-11T22:47:29.106Z,2.65
2023-04-11T22:49:55.976Z,12.23
2023-04-11T22:52:26.403Z,4.93
2023-04-11T22:54:53.292Z,4.50
2023-04-11T22:57:20.171Z,9.30
2023-04-11T22:59:47.333Z,5.60
2023-04-11T23:02:14.264Z,2.80
2023-04-11T23:04:41.860Z,11.82
2023-04-11T23:07:08.816Z,5.60
2023-04-11T23:09:35.747Z,9.15
2023-04-11T23:12:03.634Z,6.05
2023-04-11T23:14:32.153Z,4.53
2023-04-11T23:17:00.384Z,2.80
2023-04-11T23:19:27.361Z,5.18
2023-04-11T23:21:54.243Z,8.30
2023-04-11T23:24:21.140Z,6.18
2023-04-11T23:26:50.159Z,5.72
2023-04-11T23:29:17.350Z,9.38
2023-04-11T23:31:44.504Z,3.10
2023-04-11T23:34:11.472Z,5.20
2023-04-11T23:36:39.420Z,3.47
2023-04-11T23:39:13.322Z,3.55
2023-04-11T23:41:40.565Z,2.25
2023-04-11T23:44:08.502Z,2.97
2023-04-11T23:46:35.534Z,3.70
2023-04-11T23:49:02.631Z,2.45
2023-04-11T23:51:29.602Z,4.15
2023-04-11T23:53:57.211Z,6.15
2023-04-11T23:56:24.376Z,5.60
2023-04-11T23:58:51.400Z,4.82
